Time;durP1;ratioP1;P1;durP2;ratioP2;P2;SDS_P1;SDS_P2;PMS_P1;PMS_P2;Temp;Humidity;BMP_temperature;BMP_pressure;BME280_temperature;BME280_humidity;BME280_pressure;Samples;Min_cycle;Max_cycle;Signal;HPM_P1;HPM_P2
2022/06/25 00:03:43;;;;;;;1.75;1.65;;;;;18.10;96016.00;;;;8321691;28;20241;-77
2022/06/25 00:07:46;;;;;;;1.90;1.55;;;;;18.10;96022.00;;;;8314991;28;20201;-76
2022/06/25 00:16:10;;;;;;;1.88;1.80;;;;;18.00;96023.00;;;;8315108;28;20202;-75
2022/06/25 00:20:15;;;;;;;4.10;1.88;;;;;18.00;96032.00;;;;8321604;28;20197;-76
2022/06/25 00:24:18;;;;;;;1.95;1.83;;;;;18.00;96030.00;;;;8321456;28;20201;-76
2022/06/25 00:28:21;;;;;;;1.77;1.67;;;;;18.00;96029.00;;;;8323524;28;20612;-75
2022/06/25 00:32:24;;;;;;;2.42;2.00;;;;;18.00;96026.00;;;;8323424;28;20225;-77
2022/06/25 00:36:29;;;;;;;7.18;2.20;;;;;18.00;96036.00;;;;8321695;28;20295;-76
2022/06/25 00:40:32;;;;;;;3.15;2.03;;;;;18.00;96042.00;;;;8322147;28;20464;-78
2022/06/25 00:44:36;;;;;;;6.68;2.00;;;;;18.00;96040.00;;;;8323028;28;20599;-78
2022/06/25 00:48:39;;;;;;;2.55;1.63;;;;;18.00;96052.00;;;;8319835;28;20196;-76
2022/06/25 00:52:48;;;;;;;3.03;2.05;;;;;18.00;96047.00;;;;8325233;28;20235;-78
2022/06/25 00:56:53;;;;;;;7.75;2.10;;;;;18.00;96047.00;;;;8311988;28;20308;-78
2022/06/25 01:00:56;;;;;;;2.08;1.83;;;;;18.00;96049.00;;;;8320882;28;20219;-79
2022/06/25 01:05:00;;;;;;;1.80;1.70;;;;;18.00;96050.00;;;;8320254;28;20225;-79
2022/06/25 01:09:04;;;;;;;1.70;1.70;;;;;18.00;96053.00;;;;8320383;28;20611;-77
2022/06/25 01:13:07;;;;;;;2.13;1.63;;;;;18.00;96062.00;;;;8319680;28;20229;-79
2022/06/25 01:17:11;;;;;;;1.70;1.70;;;;;18.00;96064.00;;;;8321476;28;20280;-79
2022/06/25 01:21:14;;;;;;;3.08;1.60;;;;;18.00;96060.00;;;;8315437;28;20205;-76
2022/06/25 01:25:19;;;;;;;4.28;1.88;;;;;18.00;96057.00;;;;8324629;28;20197;-78
2022/06/25 01:29:22;;;;;;;1.75;1.70;;;;;18.00;96066.00;;;;8320664;28;20197;-78
2022/06/25 01:33:25;;;;;;;2.70;2.13;;;;;18.00;96067.00;;;;8321582;28;20316;-78
2022/06/25 01:37:28;;;;;;;1.90;1.80;;;;;18.00;96065.00;;;;8315982;28;20194;-78
2022/06/25 01:41:34;;;;;;;2.00;1.90;;;;;18.10;96064.00;;;;8320325;28;20201;-78
2022/06/25 01:45:38;;;;;;;2.92;2.00;;;;;18.10;96060.00;;;;8318965;28;20625;-78
2022/06/25 01:49:42;;;;;;;2.13;1.98;;;;;18.10;96067.00;;;;8320420;28;20707;-77
2022/06/25 01:53:45;;;;;;;2.00;1.90;;;;;18.20;96077.00;;;;8319198;28;20317;-78
2022/06/25 01:57:50;;;;;;;4.50;2.03;;;;;18.20;96073.00;;;;8319714;28;20276;-79
2022/06/25 02:01:54;;;;;;;1.90;1.80;;;;;18.20;96072.00;;;;8317573;28;20758;-80
2022/06/25 02:05:58;;;;;;;3.80;2.20;;;;;18.20;96070.00;;;;8315078;28;20236;-79
2022/06/25 02:10:01;;;;;;;6.55;2.30;;;;;18.10;96069.00;;;;8317197;28;20212;-80
2022/06/25 02:14:06;;;;;;;2.17;2.08;;;;;18.10;96074.00;;;;8318588;28;20670;-82
2022/06/25 02:18:10;;;;;;;4.93;2.63;;;;;18.10;96080.00;;;;8322401;28;20197;-77
2022/06/25 02:22:14;;;;;;;3.08;2.15;;;;;18.10;96080.00;;;;8326985;28;20201;-78
2022/06/25 02:26:18;;;;;;;4.72;2.40;;;;;18.00;96081.00;;;;8326117;28;20220;-78
2022/06/25 02:30:22;;;;;;;4.07;2.30;;;;;18.00;96080.00;;;;8326935;28;20277;-79
2022/06/25 02:34:25;;;;;;;2.75;2.33;;;;;18.00;96085.00;;;;8326198;28;20201;-79
2022/06/25 02:38:29;;;;;;;2.80;2.60;;;;;18.00;96082.00;;;;8324625;28;20240;-77
2022/06/25 02:42:35;;;;;;;5.15;2.83;;;;;18.00;96085.00;;;;8326071;28;20292;-79
2022/06/25 02:46:40;;;;;;;3.72;2.50;;;;;18.00;96088.00;;;;8323487;28;20869;-80
2022/06/25 02:50:43;;;;;;;3.00;2.80;;;;;17.90;96094.00;;;;8324991;28;20205;-81
2022/06/25 02:54:46;;;;;;;11.40;3.80;;;;;17.90;96108.00;;;;8327965;28;20605;-82
2022/06/25 02:58:54;;;;;;;6.07;3.08;;;;;17.90;96109.00;;;;8323724;28;20280;-82
2022/06/25 03:02:59;;;;;;;5.55;2.88;;;;;17.90;96106.00;;;;8366114;22;20247;-79
2022/06/25 03:07:02;;;;;;;7.70;3.45;;;;;18.00;96111.00;;;;8314014;28;20194;-80
2022/06/25 03:11:05;;;;;;;4.15;3.28;;;;;18.00;96113.00;;;;8320415;28;20248;-80
2022/06/25 03:15:09;;;;;;;7.40;3.63;;;;;18.00;96121.00;;;;8318810;28;20191;-78
2022/06/25 03:19:14;;;;;;;7.47;3.40;;;;;18.00;96121.00;;;;8325097;28;20197;-79
2022/06/25 03:23:17;;;;;;;4.40;3.70;;;;;18.00;96117.00;;;;8323837;28;20208;-80
2022/06/25 03:27:21;;;;;;;7.50;4.18;;;;;17.90;96123.00;;;;8322291;28;20617;-80
2022/06/25 03:31:24;;;;;;;5.43;3.53;;;;;18.00;96113.00;;;;8324835;28;20229;-80
2022/06/25 03:35:29;;;;;;;5.18;3.72;;;;;18.00;96119.00;;;;8322144;28;20185;-78
2022/06/25 03:39:34;;;;;;;7.32;3.70;;;;;18.00;96123.00;;;;8316350;28;20259;-78
2022/06/25 03:43:37;;;;;;;4.13;3.83;;;;;17.90;96115.00;;;;8322080;28;20292;-79
2022/06/25 03:47:40;;;;;;;4.18;3.78;;;;;18.00;96115.00;;;;8323045;28;20292;-79
2022/06/25 03:51:45;;;;;;;4.13;3.80;;;;;18.00;96120.00;;;;8323714;28;20233;-81
2022/06/25 03:55:48;;;;;;;7.22;3.95;;;;;18.10;96127.00;;;;8323421;28;20205;-80
2022/06/25 03:59:56;;;;;;;6.18;3.88;;;;;18.10;96134.00;;;;8321094;28;20197;-80
2022/06/25 04:03:59;;;;;;;5.43;3.60;;;;;18.20;96131.00;;;;8344345;28;20240;-79
2022/06/25 04:08:04;;;;;;;4.47;3.78;;;;;18.30;96130.00;;;;8352615;28;21004;-79
2022/06/25 04:12:08;;;;;;;6.93;3.83;;;;;18.30;96133.00;;;;8357376;28;20303;-81
2022/06/25 04:16:11;;;;;;;6.47;3.55;;;;;18.30;96140.00;;;;8353415;28;20620;-81
2022/06/25 04:20:14;;;;;;;4.68;3.75;;;;;18.30;96135.00;;;;8354579;28;20600;-81
2022/06/25 04:24:19;;;;;;;4.47;3.63;;;;;18.40;96140.00;;;;8351966;28;20287;-78
2022/06/25 04:32:43;;;;;;;4.47;3.95;;;;;18.50;96142.00;;;;8344896;28;20228;-83
2022/06/25 04:36:46;;;;;;;8.25;3.90;;;;;18.60;96159.00;;;;8352456;28;20200;-82
2022/06/25 04:40:51;;;;;;;7.22;3.75;;;;;18.70;96145.00;;;;8348532;28;20226;-80
2022/06/25 04:44:54;;;;;;;6.80;3.95;;;;;18.90;96138.00;;;;8353599;28;20859;-78
2022/06/25 04:48:57;;;;;;;3.70;3.40;;;;;19.20;96149.00;;;;8349351;28;20196;-78
2022/06/25 04:53:01;;;;;;;6.32;3.60;;;;;19.40;96151.00;;;;8353764;28;21585;-80
2022/06/25 04:57:06;;;;;;;5.10;3.17;;;;;19.50;96152.00;;;;8352802;28;20232;-82
2022/06/25 05:01:09;;;;;;;3.70;3.42;;;;;19.40;96162.00;;;;8348423;28;20280;-81
2022/06/25 05:05:13;;;;;;;5.28;3.35;;;;;19.50;96157.00;;;;8344616;28;20319;-82
2022/06/25 05:09:16;;;;;;;5.38;3.03;;;;;19.60;96156.00;;;;8351362;28;20713;-85
2022/06/25 05:13:20;;;;;;;3.47;3.15;;;;;19.60;96163.00;;;;8347745;28;20316;-83
2022/06/25 05:17:24;;;;;;;6.28;3.40;;;;;19.60;96161.00;;;;8350481;28;20200;-81
2022/06/25 05:21:27;;;;;;;3.38;2.90;;;;;19.60;96157.00;;;;8348091;28;20215;-82
2022/06/25 05:25:31;;;;;;;3.85;2.85;;;;;19.70;96165.00;;;;8348796;28;20215;-81
2022/06/25 05:29:35;;;;;;;2.70;2.55;;;;;19.80;96173.00;;;;8352638;28;20283;-82
2022/06/25 05:33:39;;;;;;;4.35;2.50;;;;;20.00;96170.00;;;;8348619;28;20667;-83
2022/06/25 05:37:42;;;;;;;3.42;2.47;;;;;20.40;96187.00;;;;8345574;28;20284;-82
2022/06/25 05:41:45;;;;;;;2.70;2.50;;;;;20.80;96183.00;;;;8352972;28;20208;-82
2022/06/25 05:45:50;;;;;;;2.33;2.13;;;;;21.30;96185.00;;;;8352571;28;20281;-79
2022/06/25 05:49:53;;;;;;;2.30;2.20;;;;;21.60;96192.00;;;;8349099;28;20208;-82
2022/06/25 05:53:57;;;;;;;3.83;2.13;;;;;22.10;96193.00;;;;8352295;28;20224;-84
2022/06/25 05:58:00;;;;;;;1.92;1.60;;;;;22.20;96195.00;;;;8344734;28;20204;-82
2022/06/25 06:02:05;;;;;;;2.45;2.00;;;;;22.70;96196.00;;;;8350248;28;20319;-84
2022/06/25 06:06:08;;;;;;;3.15;1.95;;;;;22.70;96204.00;;;;8352466;28;20643;-82
2022/06/25 06:10:12;;;;;;;1.90;1.80;;;;;22.30;96204.00;;;;8346386;28;20200;-83
2022/06/25 06:14:15;;;;;;;2.17;2.00;;;;;22.40;96212.00;;;;8347829;28;20220;-81
2022/06/25 06:18:19;;;;;;;3.78;2.03;;;;;22.70;96219.00;;;;8352520;28;20204;-82
2022/06/25 06:22:23;;;;;;;1.92;1.75;;;;;22.30;96221.00;;;;8346024;28;20204;-83
2022/06/25 06:26:26;;;;;;;2.05;1.95;;;;;22.10;96235.00;;;;8340701;28;20303;-83
2022/06/25 06:30:30;;;;;;;2.53;2.20;;;;;21.90;96239.00;;;;8352639;28;20203;-82
2022/06/25 06:34:40;;;;;;;3.08;2.38;;;;;22.20;96243.00;;;;8352721;28;20228;-82
2022/06/25 06:38:43;;;;;;;3.15;2.80;;;;;22.20;96227.00;;;;8351093;28;20217;-83
2022/06/25 06:42:46;;;;;;;2.63;2.47;;;;;22.20;96237.00;;;;8353959;28;20240;-83
2022/06/25 06:46:49;;;;;;;3.08;2.75;;;;;22.30;96238.00;;;;8354076;28;20844;-82
2022/06/25 06:50:54;;;;;;;3.55;2.30;;;;;22.40;96238.00;;;;8349598;28;20197;-81
2022/06/25 06:54:59;;;;;;;3.22;2.42;;;;;22.60;96251.00;;;;8350739;28;20708;-83
2022/06/25 06:59:03;;;;;;;2.72;2.53;;;;;22.60;96245.00;;;;8347464;28;20608;-83
2022/06/25 07:03:06;;;;;;;2.47;2.22;;;;;22.80;96243.00;;;;8348940;28;20220;-81
2022/06/25 07:07:11;;;;;;;3.13;2.30;;;;;23.60;96241.00;;;;8358561;28;20364;-82
2022/06/25 07:15:34;;;;;;;2.65;1.88;;;;;25.60;96238.00;;;;8358333;28;20307;-83
2022/06/25 07:19:37;;;;;;;3.55;2.03;;;;;26.00;96244.00;;;;8354947;28;20294;-82
2022/06/25 07:23:42;;;;;;;2.30;2.10;;;;;25.40;96240.00;;;;8356179;28;20213;-80
2022/06/25 07:27:46;;;;;;;2.45;1.90;;;;;25.20;96240.00;;;;8355906;28;20200;-83
2022/06/25 07:31:49;;;;;;;4.13;1.83;;;;;26.10;96242.00;;;;8349114;28;20200;-81
2022/06/25 07:35:53;;;;;;;2.15;1.63;;;;;27.40;96238.00;;;;8355797;28;20323;-83
2022/06/25 07:39:57;;;;;;;1.70;1.50;;;;;28.20;96233.00;;;;8351225;28;20208;-83
2022/06/25 07:44:00;;;;;;;1.60;1.50;;;;;27.80;96238.00;;;;8353272;28;20200;-83
2022/06/25 07:48:04;;;;;;;1.42;1.42;;;;;27.40;96236.00;;;;8353071;28;20193;-81
2022/06/25 07:52:07;;;;;;;1.77;1.67;;;;;26.70;96235.00;;;;8347795;28;20276;-84
2022/06/25 07:56:12;;;;;;;2.17;1.88;;;;;26.20;96235.00;;;;8350984;28;20315;-75
2022/06/25 08:00:16;;;;;;;1.70;1.60;;;;;26.80;96237.00;;;;8351307;28;20204;-76
2022/06/25 08:04:20;;;;;;;1.77;1.67;;;;;27.80;96244.00;;;;8361276;28;20324;-77
2022/06/25 08:08:23;;;;;;;1.73;1.65;;;;;28.50;96241.00;;;;8363189;28;20203;-77
2022/06/25 08:12:28;;;;;;;1.60;1.50;;;;;29.20;96233.00;;;;8359166;28;20200;-76
2022/06/25 08:16:31;;;;;;;1.63;1.50;;;;;29.40;96235.00;;;;8369027;28;20693;-78
2022/06/25 08:20:35;;;;;;;3.42;1.80;;;;;28.90;96242.00;;;;8351519;28;20701;-77
2022/06/25 08:24:39;;;;;;;1.80;1.40;;;;;30.40;96240.00;;;;8366090;28;20266;-79
2022/06/25 08:28:44;;;;;;;2.13;1.70;;;;;30.90;96231.00;;;;8365126;28;20280;-76
2022/06/25 08:32:49;;;;;;;1.15;1.15;;;;;31.10;96236.00;;;;8361160;28;20200;-79
2022/06/25 08:36:52;;;;;;;1.23;1.20;;;;;31.50;96234.00;;;;8361077;28;20275;-80
2022/06/25 08:41:00;;;;;;;3.13;1.98;;;;;31.70;96245.00;;;;8365618;28;20737;-79
2022/06/25 08:45:08;;;;;;;2.00;1.40;;;;;30.30;96244.00;;;;8363343;28;20731;-77
2022/06/25 08:49:12;;;;;;;2.05;1.30;;;;;29.90;96242.00;;;;8366651;28;20723;-76
2022/06/25 08:53:16;;;;;;;2.78;1.30;;;;;29.90;96246.00;;;;8362550;28;20232;-78
2022/06/25 08:57:19;;;;;;;1.65;1.50;;;;;30.90;96240.00;;;;8361695;28;20282;-79
2022/06/25 09:01:24;;;;;;;1.48;1.38;;;;;31.20;96241.00;;;;8363836;28;20197;-79
2022/06/25 09:05:29;;;;;;;1.83;1.60;;;;;31.20;96239.00;;;;8360665;28;20646;-79
2022/06/25 09:09:35;;;;;;;1.58;1.48;;;;;31.20;96239.00;;;;8360798;28;20219;-79
2022/06/25 09:13:38;;;;;;;5.20;1.60;;;;;32.40;96237.00;;;;8363695;28;20600;-78
2022/06/25 09:17:49;;;;;;;1.98;1.60;;;;;33.30;96242.00;;;;8366620;28;20219;-78
2022/06/25 09:21:52;;;;;;;1.85;1.35;;;;;33.40;96241.00;;;;8362007;28;20951;-79
2022/06/25 09:26:05;;;;;;;1.98;1.30;;;;;33.70;96235.00;;;;8361448;28;20714;-80
2022/06/25 09:30:10;;;;;;;1.48;1.40;;;;;32.60;96234.00;;;;8363284;28;20200;-78
2022/06/25 09:34:15;;;;;;;5.03;1.60;;;;;30.60;96247.00;;;;8359103;28;20222;-79
2022/06/25 09:38:19;;;;;;;2.45;1.50;;;;;30.00;96236.00;;;;8358941;28;20219;-81
2022/06/25 09:42:27;;;;;;;1.83;1.27;;;;;31.50;96246.00;;;;8362065;28;20197;-80
2022/06/25 09:46:30;;;;;;;1.60;1.50;;;;;33.20;96233.00;;;;8361513;28;20268;-80
2022/06/25 09:50:35;;;;;;;1.50;1.40;;;;;33.20;96230.00;;;;8360850;28;20205;-79
2022/06/25 09:54:38;;;;;;;1.30;1.20;;;;;32.30;96229.00;;;;8360623;28;20566;-77
2022/06/25 09:58:43;;;;;;;1.85;1.30;;;;;31.20;96235.00;;;;8354319;28;20279;-79
2022/06/25 10:02:48;;;;;;;1.30;1.30;;;;;30.20;96233.00;;;;8364107;28;20249;-78
2022/06/25 10:06:57;;;;;;;1.50;1.40;;;;;31.60;96229.00;;;;8356722;28;20938;-76
2022/06/25 10:11:00;;;;;;;1.65;1.45;;;;;33.70;96223.00;;;;8365390;28;20207;-79
2022/06/25 10:15:04;;;;;;;1.33;1.33;;;;;34.90;96218.00;;;;8358039;28;20234;-77
2022/06/25 10:19:15;;;;;;;1.77;1.17;;;;;34.80;96219.00;;;;8365712;28;20188;-78
2022/06/25 10:23:22;;;;;;;1.15;1.15;;;;;34.20;96227.00;;;;8354083;28;20753;-78
2022/06/25 10:27:25;;;;;;;1.30;1.30;;;;;33.10;96222.00;;;;8359209;28;20291;-79
2022/06/25 10:31:29;;;;;;;2.72;1.30;;;;;32.90;96218.00;;;;8356270;28;21899;-79
2022/06/25 10:35:35;;;;;;;1.00;1.00;;;;;33.30;96215.00;;;;8367176;28;20591;-78
2022/06/25 10:39:40;;;;;;;1.17;1.17;;;;;32.80;96210.00;;;;8360583;28;20208;-78
2022/06/25 10:43:46;;;;;;;1.23;1.13;;;;;33.00;96210.00;;;;8368688;28;20203;-78
2022/06/25 10:47:52;;;;;;;1.55;1.23;;;;;32.80;96205.00;;;;8367264;28;20299;-77
2022/06/25 10:51:55;;;;;;;1.95;1.20;;;;;32.60;96206.00;;;;8363184;28;20196;-77
2022/06/25 10:56:02;;;;;;;1.40;1.30;;;;;33.70;96198.00;;;;8369612;28;20315;-78
2022/06/25 11:00:08;;;;;;;1.20;1.20;;;;;33.70;96194.00;;;;8364577;28;20201;-76
2022/06/25 11:04:12;;;;;;;1.38;1.27;;;;;34.20;96189.00;;;;8364473;28;20665;-76
2022/06/25 11:08:16;;;;;;;3.58;1.20;;;;;34.70;96194.00;;;;8365584;28;20205;-78
2022/06/25 11:12:20;;;;;;;1.17;1.17;;;;;34.00;96202.00;;;;8365816;28;20291;-77
2022/06/25 11:16:24;;;;;;;3.35;1.15;;;;;32.80;96199.00;;;;8369778;28;20226;-74
2022/06/25 11:20:29;;;;;;;1.20;1.20;;;;;32.10;96201.00;;;;8365666;28;20196;-77
2022/06/25 11:24:33;;;;;;;1.50;1.40;;;;;31.40;96195.00;;;;8372485;28;20201;-77
2022/06/25 11:32:55;;;;;;;1.63;1.38;;;;;30.80;96193.00;;;;8368185;28;20762;-76
2022/06/25 11:37:02;;;;;;;1.40;1.30;;;;;31.00;96190.00;;;;8355540;28;20299;-78
2022/06/25 11:41:05;;;;;;;1.40;1.40;;;;;31.10;96189.00;;;;8351244;28;20205;-78
2022/06/25 11:45:11;;;;;;;1.45;1.20;;;;;31.70;96188.00;;;;8347232;28;20287;-74
2022/06/25 11:49:14;;;;;;;1.55;1.40;;;;;32.30;96183.00;;;;8354024;28;20681;-76
2022/06/25 11:53:17;;;;;;;1.33;1.33;;;;;33.90;96177.00;;;;8348632;28;20267;-77
2022/06/25 11:57:22;;;;;;;3.58;1.55;;;;;35.50;96183.00;;;;8350412;28;20251;-77
2022/06/25 12:01:30;;;;;;;1.33;1.30;;;;;36.70;96174.00;;;;8351104;28;20656;-76
2022/06/25 12:05:34;;;;;;;1.10;1.10;;;;;38.20;96174.00;;;;8350142;28;20192;-78
2022/06/25 12:09:40;;;;;;;1.25;1.15;;;;;37.80;96176.00;;;;8342338;28;20205;-78
2022/06/25 12:13:45;;;;;;;1.17;1.17;;;;;35.60;96180.00;;;;8352254;28;20205;-78
2022/06/25 12:17:50;;;;;;;1.40;1.30;;;;;35.90;96180.00;;;;8344367;28;20221;-75
2022/06/25 12:21:53;;;;;;;1.20;1.10;;;;;35.40;96179.00;;;;8344661;28;20222;-75
2022/06/25 12:25:58;;;;;;;1.27;1.25;;;;;35.30;96181.00;;;;8342782;28;20196;-76
2022/06/25 12:30:05;;;;;;;1.00;1.00;;;;;34.30;96177.00;;;;8349697;28;20215;-76
2022/06/25 12:34:14;;;;;;;1.00;1.00;;;;;33.30;96179.00;;;;8344027;28;20672;-75
2022/06/25 12:38:17;;;;;;;1.95;1.38;;;;;32.90;96168.00;;;;8350523;28;20211;-76
2022/06/25 12:42:20;;;;;;;1.40;1.17;;;;;33.30;96178.00;;;;8349269;28;20287;-75
2022/06/25 12:46:23;;;;;;;1.27;1.27;;;;;33.10;96170.00;;;;8350276;28;20705;-74
2022/06/25 12:50:30;;;;;;;1.20;1.20;;;;;32.80;96161.00;;;;8350890;28;20197;-73
2022/06/25 12:54:41;;;;;;;2.28;1.33;;;;;32.40;96159.00;;;;8352269;28;20228;-74
2022/06/25 12:58:45;;;;;;;1.20;1.15;;;;;31.90;96161.00;;;;8339118;28;20213;-78
2022/06/25 13:02:49;;;;;;;3.22;1.10;;;;;32.30;96161.00;;;;8344271;28;20228;-78
2022/06/25 13:06:54;;;;;;;2.80;1.50;;;;;32.60;96162.00;;;;8349557;28;20188;-76
2022/06/25 13:11:01;;;;;;;1.15;1.15;;;;;32.30;96162.00;;;;8350788;28;20204;-76
2022/06/25 13:15:06;;;;;;;1.88;1.20;;;;;31.90;96154.00;;;;8338374;28;20256;-77
2022/06/25 13:19:09;;;;;;;1.38;1.27;;;;;32.30;96158.00;;;;8350815;28;20224;-76
2022/06/25 13:23:14;;;;;;;1.45;1.35;;;;;32.70;96156.00;;;;8347873;28;20288;-75
2022/06/25 13:27:17;;;;;;;1.15;1.15;;;;;34.10;96143.00;;;;8351742;28;20207;-76
2022/06/25 13:31:20;;;;;;;1.42;1.20;;;;;35.10;96154.00;;;;8343678;28;20284;-76
2022/06/25 13:35:24;;;;;;;3.95;1.20;;;;;35.70;96153.00;;;;8349091;28;20213;-77
2022/06/25 13:39:28;;;;;;;1.60;1.10;;;;;36.20;96157.00;;;;8342731;28;20204;-76
2022/06/25 13:43:31;;;;;;;1.13;1.13;;;;;36.80;96155.00;;;;8347697;28;20288;-76
2022/06/25 13:47:36;;;;;;;4.82;3.53;;;;;37.30;96156.00;;;;8342800;28;20284;-76
2022/06/25 13:51:40;;;;;;;3.38;2.58;;;;;37.30;96150.00;;;;8345560;28;20276;-76
2022/06/25 13:55:45;;;;;;;2.17;1.98;;;;;37.30;96147.00;;;;8341401;28;20929;-76
2022/06/25 13:59:48;;;;;;;2.42;1.10;;;;;37.70;96145.00;;;;8348629;28;20196;-76
2022/06/25 14:03:52;;;;;;;6.03;0.98;;;;;37.90;96151.00;;;;8345323;28;20229;-77
2022/06/25 14:07:55;;;;;;;1.67;1.58;;;;;38.20;96138.00;;;;8347484;28;20204;-77
2022/06/25 14:12:00;;;;;;;3.45;1.60;;;;;38.10;96133.00;;;;8351845;28;20224;-77
2022/06/25 14:16:04;;;;;;;1.23;1.00;;;;;37.90;96138.00;;;;8353120;28;20347;-77
2022/06/25 14:20:08;;;;;;;1.88;1.27;;;;;37.80;96129.00;;;;8355820;28;20259;-78
2022/06/25 14:24:11;;;;;;;1.55;1.15;;;;;37.90;96133.00;;;;8350708;28;20216;-78
2022/06/25 14:28:16;;;;;;;1.10;1.10;;;;;37.80;96132.00;;;;8347398;28;20231;-75
2022/06/25 14:32:19;;;;;;;1.20;1.20;;;;;38.00;96131.00;;;;8352864;28;20201;-79
2022/06/25 14:45:07;;;;;;;2.88;2.55;;;;;37.70;96123.00;;;;8353595;28;20193;-76
2022/06/25 14:49:11;;;;;;;1.50;1.40;;;;;38.00;96119.00;;;;8351146;28;20236;-76
2022/06/25 14:53:14;;;;;;;1.17;1.15;;;;;37.80;96118.00;;;;8354690;28;20287;-76
2022/06/25 14:57:18;;;;;;;1.73;1.20;;;;;38.00;96121.00;;;;8347942;28;20586;-76
2022/06/25 15:01:24;;;;;;;1.75;1.30;;;;;37.90;96120.00;;;;8352417;28;20640;-77
2022/06/25 15:05:27;;;;;;;1.52;1.42;;;;;38.00;96118.00;;;;8316336;28;21943;-76
2022/06/25 15:09:31;;;;;;;1.13;1.00;;;;;38.10;96124.00;;;;8312003;28;20205;-76
2022/06/25 15:13:34;;;;;;;1.20;1.10;;;;;37.50;96113.00;;;;8321642;28;20293;-76
2022/06/25 15:17:39;;;;;;;2.75;1.20;;;;;37.30;96103.00;;;;8319012;28;20839;-77
2022/06/25 15:21:42;;;;;;;4.15;0.90;;;;;37.10;96100.00;;;;8314332;28;20235;-78
2022/06/25 15:25:46;;;;;;;1.38;1.08;;;;;37.20;96093.00;;;;8320104;28;20247;-77
2022/06/25 15:29:49;;;;;;;1.00;1.00;;;;;37.10;96091.00;;;;8313937;28;20946;-78
2022/06/25 15:33:54;;;;;;;1.10;1.00;;;;;37.00;96091.00;;;;8315659;28;20277;-77
2022/06/25 15:37:57;;;;;;;2.38;0.95;;;;;37.10;96095.00;;;;8314065;28;20705;-74
2022/06/25 15:42:00;;;;;;;1.23;1.02;;;;;37.50;96095.00;;;;8315344;28;20635;-74
2022/06/25 15:46:04;;;;;;;0.93;0.93;;;;;37.80;96093.00;;;;8315123;28;20198;-75
2022/06/25 15:50:11;;;;;;;0.85;0.85;;;;;38.00;96091.00;;;;8319106;28;20324;-76
2022/06/25 15:54:14;;;;;;;1.27;1.00;;;;;37.90;96087.00;;;;8310349;28;20771;-74
2022/06/25 15:58:17;;;;;;;1.17;1.08;;;;;37.60;96075.00;;;;8312312;28;20263;-78
2022/06/25 16:02:21;;;;;;;1.05;1.05;;;;;37.40;96072.00;;;;8323531;28;20236;-76
2022/06/25 16:06:25;;;;;;;1.00;1.00;;;;;37.60;96074.00;;;;8343560;28;20914;-76
2022/06/25 16:10:28;;;;;;;2.20;1.02;;;;;37.70;96069.00;;;;8346724;28;20650;-75
2022/06/25 16:14:32;;;;;;;0.95;0.95;;;;;37.50;96077.00;;;;8346938;28;20339;-75
2022/06/25 16:18:35;;;;;;;1.00;1.00;;;;;37.70;96075.00;;;;8348205;28;20230;-74
2022/06/25 16:22:41;;;;;;;0.95;0.95;;;;;37.80;96069.00;;;;8350829;28;20205;-75
2022/06/25 16:26:46;;;;;;;1.20;1.10;;;;;37.90;96073.00;;;;8349340;28;20635;-74
2022/06/25 16:30:49;;;;;;;1.00;1.00;;;;;38.00;96072.00;;;;8345368;28;20693;-74
2022/06/25 16:34:52;;;;;;;1.05;1.05;;;;;37.70;96072.00;;;;8347204;28;20900;-76
2022/06/25 16:39:02;;;;;;;1.02;1.02;;;;;37.90;96061.00;;;;8351839;28;20228;-76
2022/06/25 16:43:05;;;;;;;1.20;1.00;;;;;37.90;96069.00;;;;8347811;28;20205;-78
2022/06/25 16:47:09;;;;;;;5.60;1.80;;;;;38.00;96069.00;;;;8349123;28;20700;-74
2022/06/25 16:51:12;;;;;;;1.95;1.35;;;;;38.10;96069.00;;;;8342392;28;20601;-77
2022/06/25 16:55:18;;;;;;;3.05;1.30;;;;;38.10;96068.00;;;;8338034;28;20262;-78
2022/06/25 16:59:37;;;;;;;1.05;1.05;;;;;38.00;96071.00;;;;8349945;28;20282;-74
2022/06/25 17:03:41;;;;;;;1.20;1.10;;;;;38.10;96066.00;;;;8340571;28;20229;-79
2022/06/25 17:07:46;;;;;;;1.10;1.10;;;;;38.40;96070.00;;;;8341661;28;20201;-75
2022/06/25 17:11:51;;;;;;;1.95;1.20;;;;;38.50;96071.00;;;;8336821;28;20249;-75
2022/06/25 17:15:55;;;;;;;1.15;1.02;;;;;38.70;96068.00;;;;8346885;28;20197;-76
2022/06/25 17:19:58;;;;;;;1.30;1.10;;;;;39.00;96078.00;;;;8349838;28;20292;-77
2022/06/25 17:24:02;;;;;;;0.98;0.98;;;;;39.10;96070.00;;;;8346105;28;20208;-78
2022/06/25 17:28:12;;;;;;;4.47;2.33;;;;;38.90;96069.00;;;;8338376;28;20200;-78
2022/06/25 17:32:16;;;;;;;0.93;0.93;;;;;39.00;96067.00;;;;8349862;28;20211;-78
2022/06/25 17:36:19;;;;;;;1.10;1.10;;;;;38.90;96069.00;;;;8348549;28;20225;-79
2022/06/25 17:40:22;;;;;;;1.10;1.10;;;;;38.80;96075.00;;;;8346964;28;20221;-78
2022/06/25 17:44:27;;;;;;;1.15;1.08;;;;;38.60;96067.00;;;;8334615;28;20307;-75
2022/06/25 17:48:30;;;;;;;1.00;1.00;;;;;38.70;96078.00;;;;8344677;28;20973;-77
2022/06/25 17:52:34;;;;;;;1.65;0.90;;;;;38.80;96079.00;;;;8351415;28;20201;-76
2022/06/25 17:56:37;;;;;;;1.00;1.00;;;;;38.40;96082.00;;;;8350500;28;20699;-76
2022/06/25 18:00:42;;;;;;;0.82;0.82;;;;;37.10;96084.00;;;;8351552;28;20283;-76
2022/06/25 18:04:45;;;;;;;1.48;1.00;;;;;35.60;96081.00;;;;8351315;28;20252;-74
2022/06/25 18:08:48;;;;;;;1.65;1.20;;;;;34.40;96091.00;;;;8350485;28;20653;-74
2022/06/25 18:12:56;;;;;;;1.73;1.23;;;;;33.40;96086.00;;;;8348740;28;20254;-73
2022/06/25 18:17:01;;;;;;;2.00;1.83;;;;;32.50;96088.00;;;;8343567;28;20736;-74
2022/06/25 18:21:04;;;;;;;3.30;3.00;;;;;31.80;96099.00;;;;8347841;28;20299;-73
2022/06/25 18:25:08;;;;;;;4.32;2.22;;;;;31.10;96095.00;;;;8348404;28;20259;-74
2022/06/25 18:29:11;;;;;;;2.13;1.90;;;;;30.50;96092.00;;;;8344544;28;20201;-75
2022/06/25 18:33:16;;;;;;;4.22;1.95;;;;;30.00;96088.00;;;;8347648;28;20284;-74
2022/06/25 18:37:20;;;;;;;4.50;1.50;;;;;29.50;96077.00;;;;8348873;28;20229;-75
2022/06/25 18:41:24;;;;;;;1.27;1.27;;;;;29.00;96073.00;;;;8343394;28;20308;-74
2022/06/25 18:45:28;;;;;;;4.25;1.30;;;;;28.40;96078.00;;;;8347521;28;20696;-74
2022/06/25 18:49:32;;;;;;;2.03;1.75;;;;;27.90;96078.00;;;;8345918;28;20196;-74
2022/06/25 18:53:36;;;;;;;1.40;1.40;;;;;27.50;96085.00;;;;8345770;28;20682;-76
2022/06/25 18:57:39;;;;;;;1.60;1.50;;;;;26.80;96084.00;;;;8344262;28;20256;-74
2022/06/25 19:01:43;;;;;;;1.80;1.50;;;;;26.20;96088.00;;;;8351978;28;20232;-75
2022/06/25 19:05:47;;;;;;;1.73;1.63;;;;;25.60;96087.00;;;;8360653;28;20208;-75
2022/06/25 19:09:51;;;;;;;1.48;1.48;;;;;25.10;96094.00;;;;8370011;28;20376;-74
2022/06/25 19:13:54;;;;;;;3.65;1.60;;;;;24.50;96093.00;;;;8365071;28;20201;-74
2022/06/25 19:17:57;;;;;;;1.80;1.70;;;;;24.10;96091.00;;;;8354332;28;20830;-74
2022/06/25 19:22:03;;;;;;;6.10;1.90;;;;;23.70;96093.00;;;;8356471;28;20199;-73
2022/06/25 19:26:06;;;;;;;2.83;2.13;;;;;23.40;96097.00;;;;8364765;28;20830;-74
2022/06/25 19:30:12;;;;;;;2.33;2.22;;;;;23.00;96092.00;;;;8354953;28;20576;-75
2022/06/25 19:34:15;;;;;;;4.95;2.20;;;;;22.60;96107.00;;;;8368057;28;20480;-74
2022/06/25 19:38:20;;;;;;;3.00;2.00;;;;;22.30;96113.00;;;;8360582;28;20227;-77
2022/06/25 19:42:23;;;;;;;4.22;2.45;;;;;22.10;96103.00;;;;8360708;28;20566;-75
2022/06/25 19:46:26;;;;;;;3.90;2.40;;;;;21.80;96117.00;;;;8368954;28;20287;-77
2022/06/25 19:50:30;;;;;;;3.50;2.15;;;;;21.60;96122.00;;;;8348613;28;20197;-75
2022/06/25 19:54:35;;;;;;;4.03;2.30;;;;;21.50;96127.00;;;;8356353;28;20788;-75
2022/06/25 19:58:44;;;;;;;2.47;2.28;;;;;21.30;96130.00;;;;8349303;28;20255;-75
2022/06/25 20:02:47;;;;;;;2.47;2.38;;;;;21.10;96133.00;;;;8350689;28;20689;-76
2022/06/25 20:06:50;;;;;;;6.20;2.35;;;;;20.90;96133.00;;;;8354827;28;20280;-74
2022/06/25 20:10:55;;;;;;;2.90;2.60;;;;;20.80;96136.00;;;;8352392;28;20201;-74
2022/06/25 20:14:58;;;;;;;5.57;2.70;;;;;20.60;96139.00;;;;8353986;28;20283;-74
2022/06/25 20:19:02;;;;;;;2.53;2.22;;;;;20.60;96143.00;;;;8352516;28;20319;-75
2022/06/25 20:23:07;;;;;;;2.95;2.25;;;;;20.40;96144.00;;;;8353623;28;20236;-74
2022/06/25 20:27:11;;;;;;;2.40;2.20;;;;;20.30;96140.00;;;;8351841;28;20539;-74
2022/06/25 20:31:14;;;;;;;3.30;3.00;;;;;20.10;96138.00;;;;8353602;28;20224;-74
2022/06/25 20:35:18;;;;;;;2.95;2.75;;;;;20.00;96142.00;;;;8354362;28;20403;-75
2022/06/25 20:39:21;;;;;;;3.65;2.60;;;;;19.90;96136.00;;;;8354449;28;20282;-75
2022/06/25 20:43:26;;;;;;;7.50;2.75;;;;;19.80;96142.00;;;;8353522;28;20211;-75
2022/06/25 20:47:29;;;;;;;3.10;2.90;;;;;19.80;96144.00;;;;8354429;28;20283;-75
2022/06/25 20:51:33;;;;;;;3.70;3.40;;;;;19.70;96138.00;;;;8354153;28;21013;-75